createdAt,value
2018-10-03T00:01:33.504Z,14.20
2018-10-03T00:04:03.716Z,14.53
2018-10-03T00:06:33.972Z,14.53
2018-10-03T00:09:05.512Z,13.87
2018-10-03T00:11:35.756Z,14.77
2018-10-03T00:14:06.761Z,15.07
2018-10-03T00:16:37.265Z,15.63
2018-10-03T00:19:07.544Z,15.17
2018-10-03T00:21:37.888Z,15.87
2018-10-03T00:24:08.314Z,15.73
2018-10-03T00:26:38.744Z,15.50
2018-10-03T00:29:09.430Z,15.03
2018-10-03T00:31:39.741Z,15.37
2018-10-03T00:34:10.078Z,16.23
2018-10-03T00:36:40.480Z,14.93
2018-10-03T00:39:12.160Z,15.53
2018-10-03T00:41:42.980Z,16.03
2018-10-03T00:44:13.542Z,16.10
2018-10-03T00:46:43.904Z,16.97
2018-10-03T00:49:14.425Z,16.00
2018-10-03T00:51:44.966Z,16.43
2018-10-03T00:54:15.409Z,16.20
2018-10-03T00:56:46.098Z,15.43
2018-10-03T00:59:16.450Z,15.90
2018-10-03T01:01:46.790Z,15.13
2018-10-03T01:04:17.441Z,17.77
2018-10-03T01:06:48.097Z,16.50
2018-10-03T01:09:18.379Z,16.53
2018-10-03T01:11:48.681Z,15.13
2018-10-03T01:14:19.040Z,16.67
2018-10-03T01:16:49.342Z,15.57
2018-10-03T01:19:20.227Z,16.40
2018-10-03T01:21:50.552Z,17.43
2018-10-03T01:24:21.176Z,17.00
2018-10-03T01:26:51.863Z,16.37
2018-10-03T01:29:22.133Z,17.63
2018-10-03T01:31:52.721Z,16.57
2018-10-03T01:34:23.024Z,18.10
2018-10-03T01:36:53.508Z,18.47
2018-10-03T01:39:23.841Z,17.93
2018-10-03T01:41:54.530Z,17.83
2018-10-03T01:44:24.996Z,18.23
2018-10-03T01:46:55.235Z,16.03
2018-10-03T01:49:25.972Z,15.63
2018-10-03T01:51:56.475Z,15.77
2018-10-03T01:54:26.707Z,15.77
2018-10-03T01:56:57.188Z,17.37
2018-10-03T01:59:27.864Z,17.87
2018-10-03T02:01:58.252Z,17.67
2018-10-03T02:04:28.623Z,18.83
2018-10-03T02:06:59.061Z,20.60
2018-10-03T02:09:29.484Z,22.30
2018-10-03T02:11:59.800Z,24.57
2018-10-03T02:17:34.979Z,23.73
2018-10-03T02:20:07.291Z,20.97
2018-10-03T02:22:37.963Z,20.50
2018-10-03T02:25:08.643Z,19.23
2018-10-03T02:27:38.991Z,18.73
2018-10-03T02:30:09.360Z,20.83
2018-10-03T02:32:39.793Z,20.63
2018-10-03T02:35:10.165Z,20.23
2018-10-03T02:37:40.998Z,20.37
2018-10-03T02:40:11.140Z,22.27
2018-10-03T02:42:41.634Z,22.23
2018-10-03T02:45:11.952Z,22.97
2018-10-03T02:47:42.559Z,21.77
2018-10-03T02:50:13.236Z,23.53
2018-10-03T02:52:43.567Z,23.00
2018-10-03T02:55:14.218Z,24.00
2018-10-03T02:57:44.991Z,23.47
2018-10-03T03:00:15.320Z,23.70
2018-10-03T03:02:46.003Z,23.30
2018-10-03T03:05:16.473Z,23.53
2018-10-03T03:07:47.231Z,21.80
2018-10-03T03:10:17.616Z,21.57
2018-10-03T03:12:48.287Z,20.60
2018-10-03T03:15:18.957Z,20.60
2018-10-03T03:17:49.520Z,20.93
2018-10-03T03:20:19.862Z,20.83
2018-10-03T03:22:50.294Z,19.97
2018-10-03T03:25:21.159Z,21.27
2018-10-03T03:27:51.942Z,21.40
2018-10-03T03:30:22.223Z,21.83
2018-10-03T03:32:52.722Z,21.50
2018-10-03T03:35:23.033Z,20.03
2018-10-03T03:37:53.966Z,22.65
2018-10-03T03:40:24.275Z,20.00
2018-10-03T03:42:54.525Z,20.27
2018-10-03T03:45:25.068Z,20.53
2018-10-03T03:47:55.895Z,20.57
2018-10-03T03:50:26.361Z,20.40
2018-10-03T03:52:56.626Z,23.10
2018-10-03T03:55:27.207Z,22.73
2018-10-03T03:57:57.640Z,22.10
2018-10-03T04:00:27.940Z,21.53
2018-10-03T04:02:58.546Z,22.03
2018-10-03T04:05:28.800Z,21.90
2018-10-03T04:07:59.271Z,23.33
2018-10-03T04:10:29.635Z,23.67
2018-10-03T04:13:00.381Z,27.33
2018-10-03T04:15:30.793Z,27.50
2018-10-03T04:18:01.152Z,27.27
2018-10-03T04:20:31.831Z,28.97
2018-10-03T04:23:02.012Z,28.90
2018-10-03T04:25:32.400Z,29.53
2018-10-03T04:28:02.676Z,28.57
2018-10-03T04:30:33.003Z,28.33
2018-10-03T04:33:03.492Z,25.00
2018-10-03T04:35:34.215Z,22.40
2018-10-03T04:38:04.540Z,24.30
2018-10-03T04:40:34.765Z,25.07
2018-10-03T04:43:05.235Z,22.60
2018-10-03T04:45:36.702Z,21.97
2018-10-03T04:48:07.050Z,22.20
2018-10-03T04:50:37.547Z,20.27
2018-10-03T04:53:08.109Z,19.77
2018-10-03T04:55:38.649Z,19.27
2018-10-03T04:58:08.969Z,17.70
2018-10-03T05:00:39.495Z,17.63
2018-10-03T05:03:09.775Z,16.70
2018-10-03T05:05:40.124Z,17.07
2018-10-03T05:08:10.411Z,16.47
2018-10-03T05:10:41.681Z,16.63
2018-10-03T05:13:17.384Z,17.37
2018-10-03T05:15:48.829Z,21.30
2018-10-03T05:18:19.178Z,19.17
2018-10-03T05:20:49.489Z,30.27
2018-10-03T05:23:19.900Z,35.73
2018-10-03T05:25:50.207Z,27.93
2018-10-03T05:28:20.837Z,20.37
2018-10-03T05:30:51.154Z,17.80
2018-10-03T05:33:21.596Z,18.50
2018-10-03T05:35:52.882Z,19.70
2018-10-03T05:38:29.887Z,20.10
2018-10-03T05:41:00.573Z,21.20
2018-10-03T05:43:31.306Z,22.13
2018-10-03T05:46:01.716Z,24.47
2018-10-03T05:48:32.507Z,21.27
2018-10-03T05:51:02.812Z,20.40
2018-10-03T05:53:33.191Z,21.47
2018-10-03T05:56:03.737Z,20.07
2018-10-03T05:58:34.269Z,20.30
2018-10-03T06:01:04.630Z,20.47
2018-10-03T06:03:35.032Z,18.77
2018-10-03T06:06:05.484Z,19.57
2018-10-03T06:08:36.160Z,19.33
2018-10-03T06:11:06.623Z,19.50
2018-10-03T06:13:37.294Z,17.90
2018-10-03T06:16:07.817Z,17.80
2018-10-03T06:18:38.275Z,18.17
2018-10-03T06:21:08.651Z,17.87
2018-10-03T06:23:38.961Z,18.80
2018-10-03T06:26:09.314Z,18.00
2018-10-03T06:28:40.529Z,18.83
2018-10-03T06:31:10.948Z,18.03
2018-10-03T06:33:42.061Z,20.30
2018-10-03T06:36:12.636Z,17.70
2018-10-03T06:38:43.185Z,18.07
2018-10-03T06:41:13.872Z,18.07
2018-10-03T06:43:44.214Z,19.97
2018-10-03T06:46:14.561Z,17.50
2018-10-03T06:48:44.984Z,16.93
2018-10-03T06:51:15.447Z,17.73
2018-10-03T06:53:45.832Z,16.17
2018-10-03T06:56:16.116Z,15.90
2018-10-03T06:58:46.764Z,16.00
2018-10-03T07:01:17.131Z,15.30
2018-10-03T07:03:47.428Z,15.63
2018-10-03T07:06:17.808Z,15.60
2018-10-03T07:08:48.589Z,15.30
2018-10-03T07:11:18.890Z,16.13
2018-10-03T07:13:49.348Z,15.33
2018-10-03T07:16:20.133Z,17.10
2018-10-03T07:18:50.598Z,16.73
2018-10-03T07:21:20.865Z,16.27
2018-10-03T07:23:51.247Z,16.20
2018-10-03T07:26:21.967Z,15.03
2018-10-03T07:28:52.863Z,16.60
2018-10-03T07:31:23.293Z,16.53
2018-10-03T07:33:53.989Z,18.57
2018-10-03T07:36:24.829Z,19.03
2018-10-03T07:38:55.251Z,19.03
2018-10-03T07:41:25.499Z,19.00
2018-10-03T07:46:56.451Z,19.13
2018-10-03T07:52:54.507Z,23.03
2018-10-03T07:55:48.997Z,21.37
2018-10-03T08:01:53.796Z,18.13
2018-10-03T08:04:55.454Z,17.73
2018-10-03T08:11:10.555Z,25.00
2018-10-03T08:23:22.389Z,17.00
2018-10-03T08:26:27.653Z,17.53
2018-10-03T08:29:22.833Z,17.80
2018-10-03T08:31:55.249Z,17.80
2018-10-03T08:34:29.723Z,17.03
2018-10-03T08:37:17.313Z,15.97
2018-10-03T08:40:07.555Z,17.90
2018-10-03T08:42:59.864Z,18.10
2018-10-03T08:51:41.034Z,19.77
2018-10-03T09:12:29.190Z,18.83
2018-10-03T09:21:00.271Z,17.20
2018-10-03T09:23:30.688Z,17.87
2018-10-03T09:26:01.252Z,19.67
2018-10-03T09:28:32.001Z,18.13
2018-10-03T09:31:02.407Z,19.50
2018-10-03T09:33:32.785Z,18.83
2018-10-03T09:36:03.209Z,19.90
2018-10-03T09:38:33.855Z,18.23
2018-10-03T09:41:04.958Z,17.63
2018-10-03T09:43:37.454Z,20.03
2018-10-03T09:46:10.967Z,18.77
2018-10-03T09:48:41.473Z,16.30
2018-10-03T09:51:11.852Z,14.67
2018-10-03T09:53:42.679Z,15.17
2018-10-03T09:56:13.379Z,13.93
2018-10-03T09:58:46.588Z,13.67
2018-10-03T10:01:22.055Z,14.53
2018-10-03T10:03:52.482Z,22.37
2018-10-03T10:06:23.256Z,29.70
2018-10-03T10:08:53.673Z,14.60
2018-10-03T10:11:24.211Z,13.37
2018-10-03T10:13:54.689Z,13.20
2018-10-03T10:16:25.239Z,13.53
2018-10-03T10:18:55.861Z,13.10
2018-10-03T10:21:26.388Z,16.12
2018-10-03T10:23:57.225Z,15.50
2018-10-03T10:26:28.405Z,15.00
2018-10-03T10:28:59.272Z,15.00
2018-10-03T10:31:29.763Z,15.93
2018-10-03T10:34:00.445Z,15.30
2018-10-03T10:36:31.163Z,15.30
2018-10-03T10:39:01.644Z,14.93
2018-10-03T10:41:32.542Z,14.97
2018-10-03T10:44:03.224Z,15.20
2018-10-03T10:46:33.770Z,15.70
2018-10-03T10:49:04.273Z,16.60
2018-10-03T10:51:34.809Z,15.50
2018-10-03T10:54:05.390Z,14.43
2018-10-03T10:56:36.358Z,15.57
2018-10-03T10:59:07.460Z,14.33
2018-10-03T11:01:38.008Z,15.10
2018-10-03T11:04:08.443Z,15.63
2018-10-03T11:06:39.012Z,14.47
2018-10-03T11:09:10.153Z,13.50
2018-10-03T11:11:40.669Z,14.60
2018-10-03T11:14:11.245Z,16.50
2018-10-03T11:16:41.872Z,13.60
2018-10-03T11:19:12.458Z,14.60
2018-10-03T11:21:43.061Z,14.13
2018-10-03T11:24:13.895Z,14.67
2018-10-03T11:26:44.758Z,13.90
2018-10-03T11:29:15.299Z,14.63
2018-10-03T11:31:45.933Z,16.07
2018-10-03T11:34:17.187Z,16.03
2018-10-03T11:36:47.803Z,15.70
2018-10-03T11:39:18.705Z,14.30
2018-10-03T11:41:49.264Z,13.40
2018-10-03T11:44:19.933Z,12.60
2018-10-03T11:46:50.264Z,14.23
2018-10-03T11:49:20.650Z,13.57
2018-10-03T11:51:51.073Z,13.77
2018-10-03T11:54:21.633Z,13.93
2018-10-03T11:56:52.117Z,15.00
2018-10-03T11:59:22.712Z,14.37
2018-10-03T12:01:53.443Z,13.73
2018-10-03T12:04:23.887Z,12.80
2018-10-03T12:06:54.600Z,14.00
2018-10-03T12:09:25.005Z,13.47
2018-10-03T12:11:55.414Z,13.30
2018-10-03T12:14:25.894Z,12.20
2018-10-03T12:16:56.201Z,12.93
2018-10-03T12:19:27.019Z,13.17
2018-10-03T12:21:57.494Z,11.83
2018-10-03T12:24:27.827Z,12.07
2018-10-03T12:26:59.450Z,11.80
2018-10-03T12:29:29.934Z,12.53
2018-10-03T12:32:00.639Z,12.90
2018-10-03T12:34:31.111Z,12.37
2018-10-03T12:37:01.957Z,11.67
2018-10-03T12:39:32.334Z,18.37
2018-10-03T12:42:02.970Z,52.57
2018-10-03T12:44:33.493Z,50.60
2018-10-03T12:47:04.196Z,17.47
2018-10-03T12:49:34.721Z,22.43
2018-10-03T12:52:05.959Z,21.77
2018-10-03T12:54:36.953Z,14.00
2018-10-03T12:57:07.466Z,14.50
2018-10-03T12:59:38.010Z,12.73
2018-10-03T13:02:09.240Z,12.67
2018-10-03T13:04:40.386Z,12.57
2018-10-03T13:07:10.766Z,14.57
2018-10-03T13:09:41.376Z,23.87
2018-10-03T13:12:11.869Z,15.13
2018-10-03T13:14:42.200Z,18.17
2018-10-03T13:17:12.818Z,16.80
2018-10-03T13:19:43.544Z,13.67
2018-10-03T13:22:14.307Z,20.03
2018-10-03T13:24:46.453Z,17.33
2018-10-03T13:27:19.590Z,24.20
2018-10-03T13:29:50.521Z,25.60
2018-10-03T13:32:21.050Z,21.50
2018-10-03T13:34:51.510Z,15.93
2018-10-03T13:37:22.005Z,18.10
2018-10-03T13:39:52.747Z,14.03
2018-10-03T13:42:23.154Z,18.90
2018-10-03T13:44:53.741Z,16.03
2018-10-03T13:47:24.089Z,17.97
2018-10-03T13:50:00.969Z,12.37
2018-10-03T13:52:31.327Z,14.93
2018-10-03T13:55:02.075Z,23.07
2018-10-03T13:57:32.772Z,18.83
2018-10-03T14:00:03.151Z,17.10
2018-10-03T14:02:33.667Z,15.33
2018-10-03T14:05:04.450Z,11.37
2018-10-03T14:07:35.015Z,10.47
2018-10-03T14:10:05.863Z,11.30
2018-10-03T14:12:36.380Z,11.07
2018-10-03T14:15:07.031Z,11.10
2018-10-03T14:17:37.690Z,10.70
2018-10-03T14:20:08.408Z,10.47
2018-10-03T14:22:38.879Z,10.93
2018-10-03T14:25:09.549Z,10.77
2018-10-03T14:27:40.253Z,10.40
2018-10-03T14:30:10.210Z,10.50
2018-10-03T14:32:40.634Z,11.47
2018-10-03T14:35:11.793Z,13.10
2018-10-03T14:37:43.063Z,11.00
2018-10-03T14:40:17.802Z,14.20
2018-10-03T14:45:17.806Z,14.43
2018-10-03T14:47:48.249Z,15.77
2018-10-03T14:50:18.795Z,15.20
2018-10-03T14:52:49.256Z,14.67
2018-10-03T14:55:19.862Z,13.27
2018-10-03T14:57:50.974Z,13.03
2018-10-03T15:00:21.325Z,13.67
2018-10-03T15:02:52.018Z,13.97
2018-10-03T15:05:22.489Z,14.00
2018-10-03T15:07:53.998Z,13.80
2018-10-03T15:10:25.211Z,14.50
2018-10-03T15:12:55.591Z,14.73
2018-10-03T15:15:26.162Z,17.10
2018-10-03T15:17:57.649Z,15.90
2018-10-03T15:20:28.648Z,15.47
2018-10-03T15:22:59.240Z,15.70
2018-10-03T15:25:29.632Z,16.13
2018-10-03T15:28:00.142Z,15.47
2018-10-03T15:30:30.964Z,16.23
2018-10-03T15:33:01.612Z,20.90
2018-10-03T15:35:32.208Z,25.23
2018-10-03T15:38:02.724Z,34.00
2018-10-03T15:40:33.680Z,36.97
2018-10-03T15:43:04.008Z,41.77
2018-10-03T15:45:54.699Z,38.83
2018-10-03T15:51:26.885Z,22.27
2018-10-03T15:53:58.068Z,23.23
2018-10-03T15:56:28.636Z,22.90
2018-10-03T15:59:09.422Z,34.53
2018-10-03T16:01:41.898Z,42.03
2018-10-03T16:04:14.059Z,35.77
2018-10-03T16:06:55.074Z,30.20
2018-10-03T16:09:27.945Z,23.63
2018-10-03T16:11:58.865Z,23.27
2018-10-03T16:14:30.564Z,29.57
2018-10-03T16:17:01.594Z,31.40
2018-10-03T16:19:32.819Z,30.20
2018-10-03T16:22:03.979Z,30.17
2018-10-03T16:24:34.727Z,25.80
2018-10-03T16:27:05.367Z,23.57
2018-10-03T16:29:35.838Z,25.20
2018-10-03T16:32:06.498Z,22.87
2018-10-03T16:34:36.962Z,23.53
2018-10-03T16:37:07.449Z,24.83
2018-10-03T16:39:37.821Z,23.43
2018-10-03T16:42:08.411Z,24.27
2018-10-03T16:44:39.194Z,22.03
2018-10-03T16:47:10.488Z,24.10
2018-10-03T16:49:41.229Z,23.67
2018-10-03T16:52:11.747Z,23.23
2018-10-03T16:54:42.174Z,22.57
2018-10-03T16:57:12.581Z,23.77
2018-10-03T16:59:43.172Z,21.83
2018-10-03T17:02:13.759Z,21.87
2018-10-03T17:04:44.366Z,23.57
2018-10-03T17:07:14.843Z,23.50
2018-10-03T17:09:45.339Z,25.67
2018-10-03T17:21:16.325Z,24.50
2018-10-03T17:32:50.557Z,24.40
2018-10-03T17:59:25.609Z,30.50
2018-10-03T18:01:59.823Z,31.77
2018-10-03T18:04:31.710Z,32.10
2018-10-03T18:07:03.463Z,33.00
2018-10-03T18:09:34.590Z,33.17
2018-10-03T18:12:06.397Z,32.50
2018-10-03T18:14:43.291Z,34.03
2018-10-03T18:17:14.906Z,33.60
2018-10-03T18:19:45.786Z,33.67
2018-10-03T18:22:17.186Z,34.17
2018-10-03T18:24:48.277Z,34.20
2018-10-03T18:27:19.257Z,35.13
2018-10-03T18:29:49.899Z,37.23
2018-10-03T18:32:20.735Z,39.47
2018-10-03T18:34:51.812Z,35.23
2018-10-03T18:37:22.892Z,37.83
2018-10-03T18:39:53.939Z,39.33
2018-10-03T18:42:24.852Z,41.67
2018-10-03T18:44:55.856Z,42.87
2018-10-03T18:47:27.174Z,44.63
2018-10-03T18:49:58.581Z,44.00
2018-10-03T18:52:29.430Z,45.67
2018-10-03T18:55:01.444Z,47.07
2018-10-03T18:57:33.011Z,43.40
2018-10-03T19:00:06.400Z,41.67
2018-10-03T19:02:38.141Z,42.07
2018-10-03T19:05:08.916Z,40.13
2018-10-03T19:07:39.463Z,38.97
2018-10-03T19:10:11.134Z,40.47
2018-10-03T19:12:44.760Z,42.07
2018-10-03T19:18:15.682Z,40.07
2018-10-03T19:20:46.379Z,39.60
2018-10-03T19:23:17.716Z,38.33
2018-10-03T19:25:51.744Z,40.13
2018-10-03T19:28:22.584Z,40.13
2018-10-03T19:30:53.353Z,39.37
2018-10-03T19:36:24.958Z,36.20
2018-10-03T19:38:57.077Z,36.73
2018-10-03T19:41:28.172Z,37.30
2018-10-03T19:44:01.022Z,36.40
2018-10-03T20:16:05.505Z,43.90
2018-10-03T20:18:36.512Z,43.43
2018-10-03T20:21:07.611Z,43.50
2018-10-03T20:23:38.423Z,42.10
2018-10-03T20:26:09.339Z,41.80
2018-10-03T20:28:40.409Z,41.67
2018-10-03T20:31:11.086Z,40.93
2018-10-03T20:33:41.734Z,40.20
2018-10-03T20:36:12.577Z,39.70
2018-10-03T20:38:43.143Z,41.37
2018-10-03T20:41:13.836Z,40.43
2018-10-03T20:43:44.514Z,40.50
2018-10-03T20:46:15.143Z,39.73
2018-10-03T20:48:45.977Z,39.87
2018-10-03T20:51:16.522Z,40.83
2018-10-03T20:53:47.366Z,39.13
2018-10-03T20:56:17.770Z,40.33
2018-10-03T20:58:48.441Z,39.73
2018-10-03T21:01:19.293Z,38.00
2018-10-03T21:03:50.293Z,39.30
2018-10-03T21:06:20.974Z,42.10
2018-10-03T21:08:51.938Z,41.37
2018-10-03T21:11:22.748Z,45.27
2018-10-03T21:13:53.558Z,45.40
2018-10-03T21:16:24.587Z,46.40
2018-10-03T21:18:55.983Z,46.90
2018-10-03T21:21:27.293Z,45.27
2018-10-03T21:23:57.822Z,43.10
2018-10-03T21:26:28.315Z,41.30
2018-10-03T21:28:58.943Z,40.80
2018-10-03T21:31:29.562Z,40.43
2018-10-03T21:34:00.201Z,41.43
2018-10-03T21:36:30.999Z,43.70
2018-10-03T21:39:01.534Z,43.83
2018-10-03T21:41:32.416Z,43.13
2018-10-03T21:44:03.064Z,44.30
2018-10-03T21:46:33.994Z,43.63
2018-10-03T21:49:04.687Z,46.43
2018-10-03T21:51:35.273Z,45.77
2018-10-03T21:54:05.635Z,45.90
2018-10-03T21:56:36.097Z,54.42
2018-10-03T21:59:06.739Z,45.53
2018-10-03T22:01:37.307Z,48.27
2018-10-03T22:04:08.059Z,48.53
2018-10-03T22:06:38.656Z,46.40
2018-10-03T22:09:10.040Z,44.80
2018-10-03T22:11:41.025Z,44.63
2018-10-03T22:14:11.662Z,44.13
2018-10-03T22:16:42.293Z,43.83
2018-10-03T22:19:13.151Z,41.47
2018-10-03T22:21:43.813Z,41.07
2018-10-03T22:24:14.504Z,39.20
2018-10-03T22:26:45.232Z,39.03
2018-10-03T22:29:15.973Z,38.30
2018-10-03T22:31:46.592Z,40.75
2018-10-03T22:34:17.357Z,37.93
2018-10-03T22:36:48.040Z,39.87
2018-10-03T22:39:18.849Z,43.37
2018-10-03T22:41:49.371Z,42.75
2018-10-03T22:44:19.809Z,50.78
2018-10-03T22:46:50.368Z,44.33
2018-10-03T22:49:20.933Z,43.43
2018-10-03T22:51:51.555Z,45.27
2018-10-03T22:54:22.191Z,44.27
2018-10-03T22:56:52.791Z,44.83
2018-10-03T22:59:24.019Z,41.73
2018-10-03T23:01:54.706Z,45.43
2018-10-03T23:04:25.518Z,43.97
2018-10-03T23:06:56.474Z,43.43
2018-10-03T23:09:27.424Z,54.70
2018-10-03T23:11:58.120Z,44.60
2018-10-03T23:14:28.596Z,52.05
2018-10-03T23:16:59.080Z,43.90
2018-10-03T23:19:29.528Z,40.50
2018-10-03T23:22:00.347Z,38.50
2018-10-03T23:24:30.968Z,38.57
2018-10-03T23:27:01.605Z,38.17
2018-10-03T23:29:32.042Z,36.87
2018-10-03T23:32:02.843Z,35.57
2018-10-03T23:34:33.452Z,41.45
2018-10-03T23:37:04.225Z,38.97
2018-10-03T23:39:34.968Z,35.70
2018-10-03T23:42:05.745Z,35.43
2018-10-03T23:44:36.456Z,33.87
2018-10-03T23:47:07.049Z,33.00
2018-10-03T23:49:37.806Z,31.93
2018-10-03T23:52:09.147Z,32.80
2018-10-03T23:54:39.806Z,31.40
2018-10-03T23:57:10.714Z,33.07
2018-10-03T23:59:41.277Z,33.20
